Time,TemperatureF,DewpointF,PressureIn,WindDirection,WindDirectionDegrees,WindSpeedMPH,WindSpeedGustMPH,Humidity,HourlyPrecipIn,Conditions,Clouds,dailyrainin,SoftwareType,DateUTC
2013-03-04 00:08:00,22.0,18.2,29.07,North,-999,3.2,-999.0,85,-99.99,,,-99.99,Acu-Link.com,2013-03-04 07:08:00,
2013-03-04 00:23:00,21.9,17.8,29.08,North,-999,4.8,-999.0,84,-99.99,,,-99.99,Acu-Link.com,2013-03-04 07:23:00,
2013-03-04 00:39:00,21.5,17.2,29.06,North,-999,1.6,-999.0,83,-99.99,,,-99.99,Acu-Link.com,2013-03-04 07:39:00,
2013-03-04 00:54:00,21.0,16.1,29.06,North,-999,11.2,-999.0,81,-99.99,,,-99.99,Acu-Link.com,2013-03-04 07:54:00,
2013-03-04 01:09:00,20.4,15.2,29.05,North,-999,1.6,-999.0,80,-99.99,,,-99.99,Acu-Link.com,2013-03-04 08:09:00,
2013-03-04 01:24:00,19.8,14.6,29.05,North,-999,4.8,-999.0,80,-99.99,,,-99.99,Acu-Link.com,2013-03-04 08:24:00,
2013-03-04 01:40:00,19.8,15.2,29.04,North,-999,6.4,-999.0,82,-99.99,,,-99.99,Acu-Link.com,2013-03-04 08:40:00,
2013-03-04 01:55:00,19.6,14.7,29.04,North,-999,3.2,-999.0,81,-99.99,,,-99.99,Acu-Link.com,2013-03-04 08:55:00,
2013-03-04 02:20:00,19.6,14.7,29.04,North,-999,4.8,-999.0,81,-99.99,,,-99.99,Acu-Link.com,2013-03-04 09:20:00,
2013-03-04 02:35:00,19.2,14.3,29.04,North,-999,3.2,-999.0,81,-99.99,,,-99.99,Acu-Link.com,2013-03-04 09:35:00,
2013-03-04 02:50:00,19.1,14.0,29.03,North,-999,1.6,-999.0,80,-99.99,,,-99.99,Acu-Link.com,2013-03-04 09:50:00,
2013-03-04 03:05:00,18.9,13.8,29.03,North,-999,4.8,-999.0,80,-99.99,,,-99.99,Acu-Link.com,2013-03-04 10:05:00,
2013-03-04 03:21:00,18.5,12.8,29.03,North,-999,4.8,-999.0,78,-99.99,,,-99.99,Acu-Link.com,2013-03-04 10:21:00,
2013-03-04 03:36:00,18.3,12.9,29.03,North,-999,4.8,-999.0,79,-99.99,,,-99.99,Acu-Link.com,2013-03-04 10:36:00,
2013-03-04 03:51:00,18.2,12.8,29.03,North,-999,9.6,-999.0,79,-99.99,,,-99.99,Acu-Link.com,2013-03-04 10:51:00,
2013-03-04 04:06:00,18.0,12.9,29.03,North,-999,3.2,-999.0,80,-99.99,,,-99.99,Acu-Link.com,2013-03-04 11:06:00,
2013-03-04 04:21:00,18.0,13.7,29.03,North,-999,3.2,-999.0,83,-99.99,,,-99.99,Acu-Link.com,2013-03-04 11:21:00,
2013-03-04 04:37:00,18.0,14.0,29.03,North,-999,0.0,-999.0,84,-99.99,,,-99.99,Acu-Link.com,2013-03-04 11:37:00,
2013-03-04 04:52:00,17.6,13.9,29.03,North,-999,3.2,-999.0,85,-99.99,,,-99.99,Acu-Link.com,2013-03-04 11:52:00,
2013-03-04 05:07:00,17.7,14.2,29.03,North,-999,6.4,-999.0,86,-99.99,,,-99.99,Acu-Link.com,2013-03-04 12:07:00,
2013-03-04 05:23:00,17.8,14.6,29.02,North,-999,1.6,-999.0,87,-99.99,,,-99.99,Acu-Link.com,2013-03-04 12:23:00,
2013-03-04 05:38:00,17.8,14.6,29.02,North,-999,3.2,-999.0,87,-99.99,,,-99.99,Acu-Link.com,2013-03-04 12:38:00,
2013-03-04 06:08:00,17.8,14.9,29.01,North,-999,3.2,-999.0,88,-99.99,,,-99.99,Acu-Link.com,2013-03-04 13:08:00,
2013-03-04 06:24:00,18.0,15.1,29.02,North,-999,3.2,-999.0,88,-99.99,,,-99.99,Acu-Link.com,2013-03-04 13:24:00,
2013-03-04 06:39:00,17.6,14.4,29.04,North,-999,8.0,-999.0,87,-99.99,,,-99.99,Acu-Link.com,2013-03-04 13:39:00,
2013-03-04 06:54:00,16.1,12.7,29.03,North,-999,12.8,-999.0,86,-99.99,,,-99.99,Acu-Link.com,2013-03-04 13:54:00,
2013-03-04 07:10:00,15.8,12.1,29.04,North,-999,3.2,-999.0,85,-99.99,,,-99.99,Acu-Link.com,2013-03-04 14:10:00,
2013-03-04 07:25:00,15.6,11.9,29.03,North,-999,1.6,-999.0,85,-99.99,,,-99.99,Acu-Link.com,2013-03-04 14:25:00,
2013-03-04 07:40:00,15.2,11.3,29.04,North,-999,3.2,-999.0,84,-99.99,,,-99.99,Acu-Link.com,2013-03-04 14:40:00,
2013-03-04 07:56:00,14.4,10.7,29.03,North,-999,6.4,-999.0,85,-99.99,,,-99.99,Acu-Link.com,2013-03-04 14:56:00,
2013-03-04 08:11:00,13.3,9.4,29.04,North,-999,4.8,-999.0,84,-99.99,,,-99.99,Acu-Link.com,2013-03-04 15:11:00,
2013-03-04 08:26:00,13.1,9.2,29.04,North,-999,3.2,-999.0,84,-99.99,,,-99.99,Acu-Link.com,2013-03-04 15:26:00,
2013-03-04 08:41:00,12.6,8.7,29.04,North,-999,3.2,-999.0,84,-99.99,,,-99.99,Acu-Link.com,2013-03-04 15:41:00,
2013-03-04 08:56:00,12.6,8.7,29.04,North,-999,9.6,-999.0,84,-99.99,,,-99.99,Acu-Link.com,2013-03-04 15:56:00,
2013-03-04 09:12:00,12.0,8.1,29.05,North,-999,6.4,-999.0,84,-99.99,,,-99.99,Acu-Link.com,2013-03-04 16:12:00,
2013-03-04 09:27:00,11.7,7.3,29.05,North,-999,3.2,-999.0,82,-99.99,,,-99.99,Acu-Link.com,2013-03-04 16:27:00,
2013-03-04 09:42:00,11.4,6.7,29.05,North,-999,3.2,-999.0,81,-99.99,,,-99.99,Acu-Link.com,2013-03-04 16:42:00,
2013-03-04 09:58:00,10.5,5.8,29.06,North,-999,16.1,-999.0,81,-99.99,,,-99.99,Acu-Link.com,2013-03-04 16:58:00,
2013-03-04 10:13:00,11.2,6.3,29.06,North,-999,4.8,-999.0,80,-99.99,,,-99.99,Acu-Link.com,2013-03-04 17:13:00,
2013-03-04 10:28:00,10.8,5.6,29.08,North,-999,6.4,-999.0,79,-99.99,,,-99.99,Acu-Link.com,2013-03-04 17:28:00,
2013-03-04 10:43:00,10.7,5.5,29.08,North,-999,1.6,-999.0,79,-99.99,,,-99.99,Acu-Link.com,2013-03-04 17:43:00,
2013-03-04 10:58:00,10.6,6.2,29.09,North,-999,3.2,-999.0,82,-99.99,,,-99.99,Acu-Link.com,2013-03-04 17:58:00,
2013-03-04 11:14:00,11.3,6.9,29.09,North,-999,8.0,-999.0,82,-99.99,,,-99.99,Acu-Link.com,2013-03-04 18:14:00,
2013-03-04 11:29:00,11.6,6.9,29.09,North,-999,4.8,-999.0,81,-99.99,,,-99.99,Acu-Link.com,2013-03-04 18:29:00,
2013-03-04 11:44:00,11.7,5.9,29.10,North,-999,4.8,-999.0,77,-99.99,,,-99.99,Acu-Link.com,2013-03-04 18:44:00,
2013-03-04 11:59:00,11.7,6.2,29.11,North,-999,0.0,-999.0,78,-99.99,,,-99.99,Acu-Link.com,2013-03-04 18:59:00,
2013-03-04 12:14:00,11.5,5.7,29.11,North,-999,4.8,-999.0,77,-99.99,,,-99.99,Acu-Link.com,2013-03-04 19:14:00,
2013-03-04 12:30:00,17.7,11.7,29.11,North,-999,4.8,-999.0,77,-99.99,,,-99.99,Acu-Link.com,2013-03-04 19:30:00,
2013-03-04 12:45:00,14.5,5.9,29.11,North,-999,9.6,-999.0,68,-99.99,,,-99.99,Acu-Link.com,2013-03-04 19:45:00,
2013-03-04 13:00:00,16.0,6.3,29.12,North,-999,6.4,-999.0,65,-99.99,,,-99.99,Acu-Link.com,2013-03-04 20:00:00,
2013-03-04 13:16:00,14.4,4.1,29.13,North,-999,8.0,-999.0,63,-99.99,,,-99.99,Acu-Link.com,2013-03-04 20:16:00,
2013-03-04 13:31:00,12.1,1.6,29.15,North,-999,8.0,-999.0,62,-99.99,,,-99.99,Acu-Link.com,2013-03-04 20:31:00,
2013-03-04 13:46:00,13.5,4.3,29.15,North,-999,1.6,-999.0,66,-99.99,,,-99.99,Acu-Link.com,2013-03-04 20:46:00,
2013-03-04 14:01:00,11.2,3.4,29.17,North,-999,6.4,-999.0,70,-99.99,,,-99.99,Acu-Link.com,2013-03-04 21:01:00,
2013-03-04 14:16:00,12.8,3.9,29.18,North,-999,6.4,-999.0,67,-99.99,,,-99.99,Acu-Link.com,2013-03-04 21:16:00,
2013-03-04 14:32:00,12.0,2.5,29.18,North,-999,4.8,-999.0,65,-99.99,,,-99.99,Acu-Link.com,2013-03-04 21:32:00,
2013-03-04 14:47:00,14.3,4.4,29.19,North,-999,4.8,-999.0,64,-99.99,,,-99.99,Acu-Link.com,2013-03-04 21:47:00,
2013-03-04 15:02:00,12.2,1.0,29.20,North,-999,8.0,-999.0,60,-99.99,,,-99.99,Acu-Link.com,2013-03-04 22:02:00,
2013-03-04 15:17:00,12.6,1.4,29.21,North,-999,4.8,-999.0,60,-99.99,,,-99.99,Acu-Link.com,2013-03-04 22:17:00,
2013-03-04 15:33:00,10.1,0.7,29.21,North,-999,4.8,-999.0,65,-99.99,,,-99.99,Acu-Link.com,2013-03-04 22:33:00,
2013-03-04 15:48:00,10.7,1.6,29.23,North,-999,6.4,-999.0,66,-99.99,,,-99.99,Acu-Link.com,2013-03-04 22:48:00,
2013-03-04 16:03:00,10.2,1.5,29.24,North,-999,6.4,-999.0,67,-99.99,,,-99.99,Acu-Link.com,2013-03-04 23:03:00,
2013-03-04 16:18:00,8.7,0.6,29.26,North,-999,1.6,-999.0,69,-99.99,,,-99.99,Acu-Link.com,2013-03-04 23:18:00,
2013-03-04 16:34:00,8.6,0.9,29.27,North,-999,6.4,-999.0,70,-99.99,,,-99.99,Acu-Link.com,2013-03-04 23:34:00,
2013-03-04 16:49:00,7.6,0.8,29.28,North,-999,9.6,-999.0,73,-99.99,,,-99.99,Acu-Link.com,2013-03-04 23:49:00,
2013-03-04 17:04:00,6.8,-0.6,29.29,North,-999,1.6,-999.0,71,-99.99,,,-99.99,Acu-Link.com,2013-03-05 00:04:00,
2013-03-04 17:19:00,5.4,-2.2,29.30,North,-999,1.6,-999.0,70,-99.99,,,-99.99,Acu-Link.com,2013-03-05 00:19:00,
2013-03-04 17:35:00,4.3,-3.0,29.30,North,-999,3.2,-999.0,71,-99.99,,,-99.99,Acu-Link.com,2013-03-05 00:35:00,
2013-03-04 17:50:00,3.5,-3.8,29.31,North,-999,8.0,-999.0,71,-99.99,,,-99.99,Acu-Link.com,2013-03-05 00:50:00,
2013-03-04 18:05:00,2.9,-4.0,29.31,North,-999,4.8,-999.0,72,-99.99,,,-99.99,Acu-Link.com,2013-03-05 01:05:00,
2013-03-04 18:21:00,2.4,-4.8,29.32,North,-999,1.6,-999.0,71,-99.99,,,-99.99,Acu-Link.com,2013-03-05 01:21:00,
2013-03-04 18:36:00,2.1,-4.8,29.32,North,-999,0.0,-999.0,72,-99.99,,,-99.99,Acu-Link.com,2013-03-05 01:36:00,
2013-03-04 18:51:00,2.0,-4.9,29.32,North,-999,3.2,-999.0,72,-99.99,,,-99.99,Acu-Link.com,2013-03-05 01:51:00,
2013-03-04 19:06:00,1.8,-4.8,29.32,North,-999,3.2,-999.0,73,-99.99,,,-99.99,Acu-Link.com,2013-03-05 02:06:00,
2013-03-04 19:22:00,2.2,-4.4,29.32,North,-999,1.6,-999.0,73,-99.99,,,-99.99,Acu-Link.com,2013-03-05 02:22:00,
2013-03-04 19:37:00,2.0,-4.3,29.33,North,-999,4.8,-999.0,74,-99.99,,,-99.99,Acu-Link.com,2013-03-05 02:37:00,
2013-03-04 19:52:00,2.1,-4.3,29.34,North,-999,4.8,-999.0,74,-99.99,,,-99.99,Acu-Link.com,2013-03-05 02:52:00,
2013-03-04 20:07:00,2.5,-3.6,29.34,North,-999,4.8,-999.0,75,-99.99,,,-99.99,Acu-Link.com,2013-03-05 03:07:00,
2013-03-04 20:22:00,2.4,-3.4,29.35,North,-999,4.8,-999.0,76,-99.99,,,-99.99,Acu-Link.com,2013-03-05 03:22:00,
2013-03-04 20:38:00,2.9,-2.9,29.36,North,-999,4.8,-999.0,76,-99.99,,,-99.99,Acu-Link.com,2013-03-05 03:38:00,
2013-03-04 20:53:00,2.9,-2.9,29.37,North,-999,4.8,-999.0,76,-99.99,,,-99.99,Acu-Link.com,2013-03-05 03:53:00,
2013-03-04 21:08:00,3.0,-2.8,29.37,North,-999,3.2,-999.0,76,-99.99,,,-99.99,Acu-Link.com,2013-03-05 04:08:00,
2013-03-04 21:23:00,3.6,-2.2,29.38,North,-999,3.2,-999.0,76,-99.99,,,-99.99,Acu-Link.com,2013-03-05 04:23:00,
2013-03-04 21:39:00,3.1,-2.7,29.38,North,-999,4.8,-999.0,76,-99.99,,,-99.99,Acu-Link.com,2013-03-05 04:39:00,
2013-03-04 21:54:00,2.5,-3.3,29.39,North,-999,1.6,-999.0,76,-99.99,,,-99.99,Acu-Link.com,2013-03-05 04:54:00,
2013-03-04 22:09:00,1.4,-4.4,29.39,North,-999,1.6,-999.0,76,-99.99,,,-99.99,Acu-Link.com,2013-03-05 05:09:00,
2013-03-04 22:24:00,0.4,-5.1,29.40,North,-999,0.0,-999.0,77,-99.99,,,-99.99,Acu-Link.com,2013-03-05 05:24:00,
2013-03-04 22:39:00,0.0,-5.2,29.40,North,-999,0.0,-999.0,78,-99.99,,,-99.99,Acu-Link.com,2013-03-05 05:39:00,
2013-03-04 22:55:00,-0.2,-5.1,29.40,North,-999,0.0,-999.0,79,-99.99,,,-99.99,Acu-Link.com,2013-03-05 05:55:00,
2013-03-04 23:10:00,-0.3,-5.0,29.40,North,-999,0.0,-999.0,80,-99.99,,,-99.99,Acu-Link.com,2013-03-05 06:10:00,
2013-03-04 23:25:00,-0.6,-5.5,29.41,North,-999,0.0,-999.0,79,-99.99,,,-99.99,Acu-Link.com,2013-03-05 06:25:00,
2013-03-04 23:40:00,-0.6,-5.3,29.41,North,-999,0.0,-999.0,80,-99.99,,,-99.99,Acu-Link.com,2013-03-05 06:40:00,
2013-03-04 23:55:00,-0.4,-5.1,29.41,North,-999,0.0,-999.0,80,-99.99,,,-99.99,Acu-Link.com,2013-03-05 06:55:00,